Time;durP1;ratioP1;P1;durP2;ratioP2;P2;SDS_P1;SDS_P2;PMS_P1;PMS_P2;Temp;Humidity;BMP_temperature;BMP_pressure;BME280_temperature;BME280_humidity;BME280_pressure;Samples;Min_cycle;Max_cycle;Signal;HPM_P1;HPM_P2
2021/01/01 00:00:48;;;;;;;28.02;14.07;;;0.30;85.10;;;;;;6251778;23;20031;-82
2021/01/01 00:03:17;;;;;;;23.13;11.57;;;0.30;86.00;;;;;;6225666;23;20008;-82
2021/01/01 00:05:43;;;;;;;27.80;11.95;;;0.20;86.20;;;;;;6250369;22;20065;-82
2021/01/01 00:08:09;;;;;;;22.27;10.63;;;0.10;86.10;;;;;;6224186;23;20087;-82
2021/01/01 00:10:35;;;;;;;19.88;9.90;;;0.10;86.70;;;;;;6226614;23;20004;-84
2021/01/01 00:13:01;;;;;;;19.75;9.45;;;0.10;86.60;;;;;;6225798;23;20050;-82
2021/01/01 00:15:27;;;;;;;17.20;9.07;;;0.00;87.20;;;;;;6225510;23;20115;-84
2021/01/01 00:17:52;;;;;;;17.98;8.82;;;0.00;87.80;;;;;;6226182;23;20023;-84
2021/01/01 00:20:18;;;;;;;21.58;11.02;;;0.00;88.10;;;;;;6230553;23;20083;-83
2021/01/01 00:22:44;;;;;;;16.83;8.90;;;-0.10;88.40;;;;;;6239033;23;20341;-81
2021/01/01 00:25:10;;;;;;;17.52;9.27;;;-0.10;88.80;;;;;;6235555;23;20070;-82
2021/01/01 00:27:36;;;;;;;16.55;9.25;;;-0.10;88.80;;;;;;6252860;23;20000;-83
2021/01/01 00:30:07;;;;;;;15.30;9.07;;;-0.10;89.10;;;;;;6225324;23;20008;-82
2021/01/01 00:32:33;;;;;;;16.85;8.43;;;-0.20;88.90;;;;;;6252259;22;20000;-83
2021/01/01 00:34:58;;;;;;;15.27;7.63;;;-0.20;89.10;;;;;;6224707;23;20019;-82
2021/01/01 00:37:24;;;;;;;15.50;8.13;;;-0.20;89.50;;;;;;6225709;23;20321;-83
2021/01/01 00:39:50;;;;;;;21.83;9.63;;;-0.20;89.60;;;;;;6224786;23;20007;-83
2021/01/01 00:42:15;;;;;;;16.90;8.63;;;-0.20;89.40;;;;;;6225648;23;20000;-84
2021/01/01 00:44:41;;;;;;;17.60;8.00;;;-0.20;89.20;;;;;;6252542;23;20000;-81
2021/01/01 00:47:11;;;;;;;16.25;7.63;;;-0.20;89.50;;;;;;6224248;23;20027;-82
2021/01/01 00:49:37;;;;;;;14.45;7.75;;;-0.20;89.40;;;;;;6252276;23;20000;-82
2021/01/01 00:52:06;;;;;;;14.63;7.57;;;-0.20;89.40;;;;;;6251896;22;20353;-82
2021/01/01 00:54:32;;;;;;;15.05;7.97;;;-0.20;89.50;;;;;;6223442;23;20088;-84
2021/01/01 00:56:58;;;;;;;18.05;8.27;;;-0.20;89.20;;;;;;6251947;23;20460;-84
2021/01/01 00:59:24;;;;;;;18.58;8.55;;;-0.10;89.50;;;;;;6225904;23;20443;-83
2021/01/01 01:01:50;;;;;;;16.95;9.10;;;-0.10;89.60;;;;;;6251916;22;20022;-83
2021/01/01 01:04:16;;;;;;;17.27;8.60;;;-0.10;89.20;;;;;;6251646;23;20366;-83
2021/01/01 01:06:41;;;;;;;25.40;11.82;;;-0.10;89.30;;;;;;6252332;23;19996;-82
2021/01/01 01:09:07;;;;;;;21.95;10.13;;;0.00;91.50;;;;;;6251701;23;20186;-82
2021/01/01 01:11:33;;;;;;;16.63;7.90;;;0.00;90.70;;;;;;6229407;22;20031;-83
2021/01/01 01:14:00;;;;;;;16.33;8.02;;;0.00;90.30;;;;;;6237581;23;20015;-85
2021/01/01 01:16:27;;;;;;;16.27;7.47;;;-0.10;90.10;;;;;;6259883;23;20004;-82
2021/01/01 01:18:53;;;;;;;15.18;7.47;;;-0.10;90.10;;;;;;6225857;23;20012;-82
2021/01/01 01:21:20;;;;;;;16.65;7.43;;;-0.10;90.10;;;;;;6225886;23;20014;-83
2021/01/01 01:23:46;;;;;;;22.98;8.77;;;-0.10;90.10;;;;;;6251375;22;20019;-82
2021/01/01 01:26:12;;;;;;;16.98;9.40;;;-0.10;90.40;;;;;;6251616;23;20000;-82
2021/01/01 01:28:38;;;;;;;15.45;7.80;;;-0.20;90.30;;;;;;6225222;23;20038;-83
2021/01/01 01:31:03;;;;;;;16.48;8.30;;;-0.20;90.40;;;;;;6225201;23;20087;-82
2021/01/01 01:33:31;;;;;;;16.50;8.63;;;-0.20;90.20;;;;;;6251833;22;20008;-83
2021/01/01 01:35:58;;;;;;;14.25;6.95;;;-0.20;90.20;;;;;;6225367;23;20323;-84
2021/01/01 01:38:23;;;;;;;15.10;7.13;;;-0.10;90.10;;;;;;6225008;23;20012;-82
2021/01/01 01:40:49;;;;;;;14.40;7.15;;;-0.10;90.00;;;;;;6251909;23;20008;-82
2021/01/01 01:43:15;;;;;;;16.83;7.63;;;-0.10;89.70;;;;;;6256686;22;20019;-84
2021/01/01 01:45:41;;;;;;;17.00;7.60;;;0.00;88.70;;;;;;6269468;23;20015;-84
2021/01/01 01:48:11;;;;;;;12.65;6.72;;;0.00;88.20;;;;;;6244726;23;19989;-88
2021/01/01 01:50:37;;;;;;;15.82;8.05;;;0.00;87.50;;;;;;6244453;23;20008;-88
2021/01/01 01:53:02;;;;;;;13.95;7.47;;;0.00;86.30;;;;;;6236016;23;20367;-83
2021/01/01 01:55:29;;;;;;;16.17;7.32;;;0.00;85.80;;;;;;6229627;23;20000;-84
2021/01/01 01:57:57;;;;;;;15.00;6.82;;;0.00;86.00;;;;;;6228491;23;20015;-82
2021/01/01 02:02:53;;;;;;;15.77;7.38;;;0.00;86.10;;;;;;6259095;22;20007;-85
2021/01/01 02:05:19;;;;;;;14.80;7.72;;;0.10;86.30;;;;;;6236812;23;20000;-85
2021/01/01 02:07:45;;;;;;;14.10;6.78;;;0.20;86.20;;;;;;6237174;23;20339;-83
2021/01/01 02:10:11;;;;;;;13.25;6.45;;;0.20;85.80;;;;;;6225843;23;20008;-82
2021/01/01 02:12:38;;;;;;;14.45;7.70;;;0.20;85.20;;;;;;6225783;23;20015;-82
2021/01/01 02:15:05;;;;;;;17.77;7.45;;;0.30;85.00;;;;;;6225824;23;20027;-84
2021/01/01 02:17:30;;;;;;;13.40;6.82;;;0.30;84.90;;;;;;6225264;23;20436;-82
2021/01/01 02:20:10;;;;;;;12.20;6.50;;;0.30;84.30;;;;;;6225876;23;20064;-82
2021/01/01 02:22:42;;;;;;;10.75;5.55;;;0.30;84.30;;;;;;6253683;22;20000;-85
2021/01/01 02:25:10;;;;;;;13.02;6.10;;;0.30;84.10;;;;;;6252179;23;20072;-83
2021/01/01 02:27:36;;;;;;;10.40;5.13;;;0.30;83.80;;;;;;6225749;23;20008;-85
2021/01/01 02:30:03;;;;;;;12.55;5.95;;;0.30;83.60;;;;;;6254113;23;20015;-83
2021/01/01 02:32:29;;;;;;;13.68;5.88;;;0.20;83.50;;;;;;6233317;23;20004;-83
2021/01/01 02:34:54;;;;;;;12.23;5.85;;;0.20;83.40;;;;;;6234553;23;20046;-82
2021/01/01 02:37:20;;;;;;;9.57;5.28;;;0.20;83.40;;;;;;6257053;23;20158;-84
2021/01/01 02:39:46;;;;;;;10.45;5.45;;;0.20;83.30;;;;;;6253528;23;20000;-83
2021/01/01 02:42:14;;;;;;;11.63;5.50;;;0.20;83.60;;;;;;6254615;22;20317;-85
2021/01/01 02:44:39;;;;;;;9.63;5.15;;;0.20;83.20;;;;;;6255746;23;20003;-83
2021/01/01 02:47:05;;;;;;;9.43;5.20;;;0.20;83.40;;;;;;6228228;23;20000;-83
2021/01/01 02:49:31;;;;;;;9.07;4.10;;;0.20;83.50;;;;;;6252799;23;20023;-83
2021/01/01 02:51:58;;;;;;;8.57;4.20;;;0.20;82.70;;;;;;6228478;23;20368;-81
2021/01/01 02:54:24;;;;;;;9.77;3.92;;;0.20;82.40;;;;;;6232723;23;20011;-83
2021/01/01 02:56:49;;;;;;;8.40;3.95;;;0.10;81.80;;;;;;6228433;23;20054;-83
2021/01/01 02:59:15;;;;;;;9.15;4.00;;;0.10;81.50;;;;;;6224255;23;20004;-86
2021/01/01 03:01:41;;;;;;;5.03;3.08;;;0.10;81.80;;;;;;6224535;22;20004;-83
2021/01/01 03:04:06;;;;;;;7.53;3.60;;;0.10;81.60;;;;;;6225217;23;20000;-86
2021/01/01 03:06:32;;;;;;;5.78;3.10;;;0.10;81.20;;;;;;6254131;23;19996;-83
2021/01/01 03:08:58;;;;;;;7.55;3.42;;;0.10;80.90;;;;;;6226155;23;20020;-83
2021/01/01 03:11:24;;;;;;;6.35;3.20;;;0.20;80.70;;;;;;6227594;23;20038;-84
2021/01/01 03:13:50;;;;;;;5.22;2.75;;;0.20;80.20;;;;;;6225708;23;20042;-83
2021/01/01 03:16:16;;;;;;;4.43;2.20;;;0.20;80.40;;;;;;6225177;23;20011;-83
2021/01/01 03:18:41;;;;;;;6.68;3.10;;;0.20;80.00;;;;;;6226556;23;20087;-83
2021/01/01 03:21:07;;;;;;;8.15;3.58;;;0.20;79.60;;;;;;6253376;23;19996;-85
2021/01/01 03:23:33;;;;;;;11.52;3.97;;;0.20;79.20;;;;;;6251335;22;20008;-82
2021/01/01 03:25:58;;;;;;;5.72;3.20;;;0.20;79.20;;;;;;6225311;23;20008;-83
2021/01/01 03:28:24;;;;;;;7.22;2.97;;;0.20;79.10;;;;;;6225005;23;20067;-83
2021/01/01 03:30:50;;;;;;;6.85;3.33;;;0.30;79.00;;;;;;6225973;23;20011;-84
2021/01/01 10:10:52;;;;;;;12.68;8.00;;;4.60;68.70;;;;;;6249387;22;20098;-77
2021/01/01 10:13:18;;;;;;;18.17;8.48;;;4.60;68.20;;;;;;6249089;23;20011;-78
2021/01/01 10:15:44;;;;;;;17.67;9.65;;;4.50;68.50;;;;;;6246272;23;20071;-77
2021/01/01 10:18:09;;;;;;;14.02;7.80;;;4.60;69.20;;;;;;6250230;23;20131;-78
2021/01/01 10:20:35;;;;;;;15.55;9.07;;;4.70;69.80;;;;;;6221770;23;20438;-79
2021/01/01 10:23:00;;;;;;;17.50;9.05;;;4.80;68.00;;;;;;6246911;23;20004;-80
2021/01/01 10:25:26;;;;;;;13.25;7.75;;;4.70;67.70;;;;;;6247734;23;20000;-79
2021/01/01 10:27:52;;;;;;;13.77;8.07;;;4.50;68.20;;;;;;6221079;23;20008;-79
2021/01/01 10:30:18;;;;;;;14.63;7.85;;;4.40;69.20;;;;;;6248656;22;20004;-79
2021/01/01 10:32:43;;;;;;;12.50;6.97;;;4.60;69.30;;;;;;6246627;23;20390;-81
2021/01/01 10:35:09;;;;;;;17.60;8.18;;;4.70;69.70;;;;;;6220290;23;20000;-81
2021/01/01 10:37:35;;;;;;;13.20;6.88;;;4.70;68.80;;;;;;6248128;23;20016;-80
2021/01/01 10:40:02;;;;;;;13.20;7.00;;;4.70;69.20;;;;;;6220044;23;20008;-79
2021/01/01 10:42:28;;;;;;;10.18;6.55;;;4.70;68.70;;;;;;6247839;23;20483;-80
2021/01/01 10:44:54;;;;;;;14.40;7.63;;;4.70;68.60;;;;;;6246972;23;20027;-80
2021/01/01 10:47:20;;;;;;;13.57;7.22;;;4.60;68.70;;;;;;6223007;23;20004;-81
2021/01/01 10:49:46;;;;;;;17.80;7.32;;;4.60;69.70;;;;;;6249559;22;20066;-79
2021/01/01 10:52:12;;;;;;;14.82;6.13;;;4.70;69.80;;;;;;6247924;23;20004;-81
2021/01/01 10:54:37;;;;;;;10.57;5.68;;;4.70;70.20;;;;;;6244720;23;20000;-79
2021/01/01 10:57:03;;;;;;;8.52;5.68;;;4.90;70.60;;;;;;6244193;23;20416;-80
2021/01/01 10:59:29;;;;;;;8.88;5.28;;;5.00;70.70;;;;;;6218305;22;20015;-78
2021/01/01 11:01:59;;;;;;;10.10;5.40;;;4.90;71.20;;;;;;6246526;23;20000;-79
2021/01/01 11:04:25;;;;;;;9.15;5.38;;;4.90;71.90;;;;;;6219490;23;20028;-79
2021/01/01 11:06:51;;;;;;;9.93;5.28;;;4.90;72.70;;;;;;6246316;23;19992;-78
2021/01/01 11:09:17;;;;;;;8.90;5.80;;;4.90;72.20;;;;;;6219253;23;20008;-79
2021/01/01 11:11:43;;;;;;;8.70;4.88;;;4.80;72.70;;;;;;6219659;23;20072;-79
2021/01/01 11:14:26;;;;;;;12.98;5.60;;;4.70;73.70;;;;;;6221645;23;20061;-79
2021/01/01 13:51:42;;;;;;;96.18;56.45;;;4.40;89.70;;;;;;6252119;22;20027;-79
2021/01/01 13:54:08;;;;;;;19.67;16.40;;;4.40;89.30;;;;;;6229384;23;20031;-85
2021/01/01 13:56:33;;;;;;;14.48;10.27;;;4.50;89.70;;;;;;6229536;23;20026;-82
2021/01/01 13:58:59;;;;;;;13.63;8.30;;;4.50;88.90;;;;;;6228439;23;20004;-82
2021/01/01 14:01:26;;;;;;;13.27;8.75;;;4.50;89.00;;;;;;6225311;23;20053;-84
2021/01/01 14:03:54;;;;;;;12.68;8.27;;;4.40;89.50;;;;;;6219289;23;20416;-84
2021/01/01 14:06:31;;;;;;;15.02;8.75;;;4.40;89.60;;;;;;6224748;23;20011;-84
2021/01/01 14:08:59;;;;;;;17.90;9.57;;;4.40;89.10;;;;;;6231367;23;20087;-84
2021/01/01 14:11:27;;;;;;;15.40;8.32;;;4.30;89.60;;;;;;6231981;23;20001;-85
2021/01/01 14:13:53;;;;;;;14.57;8.55;;;4.20;90.10;;;;;;6231725;23;20016;-84
2021/01/01 14:16:19;;;;;;;13.25;8.88;;;4.10;90.60;;;;;;6231249;23;20000;-84
2021/01/01 14:18:45;;;;;;;13.05;8.48;;;4.00;91.00;;;;;;6257418;23;20050;-84
2021/01/01 14:21:11;;;;;;;13.23;8.18;;;3.90;91.30;;;;;;6232095;23;20079;-84
2021/01/01 14:23:37;;;;;;;13.13;8.68;;;3.90;91.40;;;;;;6230854;23;20079;-84
2021/01/01 14:26:03;;;;;;;15.13;8.65;;;3.90;91.50;;;;;;6258442;23;20000;-84
2021/01/01 14:28:29;;;;;;;15.57;7.70;;;3.80;91.70;;;;;;6232562;23;20011;-84
2021/01/01 14:30:56;;;;;;;12.85;7.85;;;3.80;92.10;;;;;;6237593;23;20384;-83
2021/01/01 14:33:22;;;;;;;16.75;11.70;;;3.70;92.20;;;;;;6238494;23;20024;-84
2021/01/01 14:35:49;;;;;;;15.98;11.02;;;3.70;92.30;;;;;;6239282;23;20042;-84
2021/01/01 14:38:15;;;;;;;15.93;9.02;;;3.60;92.60;;;;;;6262042;22;20004;-84
2021/01/01 14:40:41;;;;;;;14.05;9.32;;;3.50;92.80;;;;;;6236137;23;20020;-84
2021/01/01 14:43:07;;;;;;;14.50;8.73;;;3.40;93.20;;;;;;6236984;23;20004;-83
2021/01/01 14:45:32;;;;;;;14.65;8.18;;;3.40;93.60;;;;;;6236533;23;20000;-84
2021/01/01 14:47:58;;;;;;;11.27;7.15;;;3.20;94.00;;;;;;6262840;23;20031;-83
2021/01/01 14:50:24;;;;;;;13.88;7.88;;;3.10;94.50;;;;;;6233758;23;20008;-84
2021/01/01 14:52:50;;;;;;;18.17;9.10;;;3.10;94.80;;;;;;6232358;23;20011;-83
2021/01/01 14:55:16;;;;;;;14.98;8.43;;;3.00;95.20;;;;;;6261035;23;20023;-83
2021/01/01 14:57:41;;;;;;;13.48;7.43;;;3.00;95.60;;;;;;6232496;23;20008;-83
2021/01/01 15:00:09;;;;;;;13.43;7.97;;;2.90;95.50;;;;;;6232077;23;19996;-83
2021/01/01 15:02:35;;;;;;;16.02;7.78;;;3.00;95.70;;;;;;6233177;23;20038;-83
2021/01/01 15:05:00;;;;;;;13.18;8.45;;;2.90;95.90;;;;;;6260280;23;20001;-83
2021/01/01 15:07:27;;;;;;;13.50;7.93;;;2.90;96.00;;;;;;6236157;22;20007;-83
2021/01/01 17:19:20;;;;;;;23.40;11.27;;;1.90;99.90;;;;;;6253033;22;20016;-82
2021/01/01 17:21:46;;;;;;;22.45;10.38;;;1.80;99.90;;;;;;6254411;22;19996;-82
2021/01/01 17:24:11;;;;;;;24.17;11.23;;;1.80;99.90;;;;;;6228893;23;20015;-83
2021/01/01 17:26:38;;;;;;;19.02;10.52;;;1.80;99.90;;;;;;6252929;23;19996;-81
2021/01/01 17:29:40;;;;;;;22.48;10.77;;;1.80;99.90;;;;;;6251919;23;20006;-80
2021/01/01 17:32:06;;;;;;;19.85;9.70;;;1.80;99.90;;;;;;6220328;23;20015;-81
2021/01/01 17:34:33;;;;;;;18.60;10.00;;;1.80;99.90;;;;;;6224111;23;20065;-78
2021/01/01 17:37:01;;;;;;;23.55;12.60;;;1.70;99.90;;;;;;6252887;23;20071;-80
2021/01/01 17:39:27;;;;;;;23.48;12.82;;;1.70;99.90;;;;;;6253043;22;20138;-82
2021/01/01 17:41:53;;;;;;;24.90;13.43;;;1.70;99.90;;;;;;6226509;23;20019;-81
2021/01/01 17:44:18;;;;;;;20.45;12.27;;;1.70;99.90;;;;;;6226651;23;20000;-83
2021/01/01 17:46:44;;;;;;;19.88;11.30;;;1.70;99.90;;;;;;6252124;23;19996;-82
2021/01/01 17:49:10;;;;;;;25.08;11.75;;;1.70;99.90;;;;;;6254371;23;20000;-80
2021/01/01 17:51:35;;;;;;;32.63;16.05;;;1.80;99.90;;;;;;6224733;23;20008;-83
2021/01/01 17:54:01;;;;;;;27.85;13.65;;;1.80;99.90;;;;;;6251998;23;20000;-81
2021/01/01 17:56:27;;;;;;;22.13;11.73;;;1.80;99.90;;;;;;6225132;23;20099;-82
2021/01/01 17:58:52;;;;;;;22.73;12.63;;;1.80;99.90;;;;;;6226066;23;20085;-82
2021/01/01 18:01:19;;;;;;;23.08;12.95;;;1.90;99.90;;;;;;6223387;23;20008;-79
2021/01/01 18:03:45;;;;;;;26.90;13.68;;;1.90;99.90;;;;;;6248083;23;20365;-79
2021/01/01 18:06:11;;;;;;;16.77;10.32;;;1.90;99.70;;;;;;6247137;23;20491;-79
2021/01/01 18:08:37;;;;;;;23.35;12.00;;;1.90;99.70;;;;;;6248637;23;20000;-80
2021/01/01 18:11:03;;;;;;;23.15;13.43;;;1.90;99.70;;;;;;6248907;22;19996;-79
2021/01/01 18:13:28;;;;;;;23.27;11.45;;;1.90;99.40;;;;;;6255115;23;20031;-78
2021/01/01 18:15:54;;;;;;;20.65;11.48;;;1.90;99.50;;;;;;6254807;23;20047;-80
2021/01/01 18:18:21;;;;;;;23.55;13.27;;;2.00;99.50;;;;;;6247494;23;20402;-79
2021/01/01 18:20:49;;;;;;;27.73;13.30;;;2.00;99.30;;;;;;6249958;22;20007;-79
2021/01/01 18:23:29;;;;;;;20.73;12.07;;;2.00;99.20;;;;;;6249257;23;20016;-80
2021/01/01 18:25:57;;;;;;;24.55;12.10;;;2.00;99.30;;;;;;6249687;23;20000;-79
2021/01/01 18:28:24;;;;;;;22.95;11.27;;;2.00;99.10;;;;;;6248481;23;20003;-78
2021/01/01 18:30:50;;;;;;;19.13;10.68;;;2.00;99.40;;;;;;6219914;23;20040;-79
2021/01/01 18:33:20;;;;;;;23.08;12.13;;;2.00;99.00;;;;;;6247684;23;19996;-79
2021/01/01 18:35:59;;;;;;;21.55;11.52;;;2.00;98.90;;;;;;6221131;23;20004;-79
2021/01/01 18:38:34;;;;;;;18.35;10.95;;;2.00;98.90;;;;;;6249006;23;20046;-80
2021/01/01 18:40:59;;;;;;;22.15;10.63;;;1.90;99.00;;;;;;6248820;22;20031;-78
2021/01/01 18:43:30;;;;;;;25.33;14.38;;;1.90;99.10;;;;;;6228385;23;20011;-79
2021/01/01 18:45:56;;;;;;;26.75;15.80;;;1.90;99.00;;;;;;6230706;23;20007;-80
2021/01/01 18:48:27;;;;;;;21.75;12.77;;;1.90;99.20;;;;;;6223512;23;20431;-79
2021/01/01 18:50:53;;;;;;;20.27;12.30;;;1.80;99.60;;;;;;6221487;23;20452;-79
2021/01/01 18:53:25;;;;;;;26.33;14.70;;;1.80;99.40;;;;;;6247991;23;20011;-79
2021/01/01 18:55:53;;;;;;;25.67;15.38;;;1.80;99.40;;;;;;6247528;23;20042;-79
2021/01/01 18:58:20;;;;;;;23.83;14.18;;;1.80;99.50;;;;;;6248113;23;20023;-78
2021/01/01 19:00:52;;;;;;;23.90;13.40;;;1.80;99.60;;;;;;6247600;22;20052;-79
2021/01/01 19:03:40;;;;;;;;;;;1.80;99.70;;;;;;6222181;23;20026;-80
2021/01/01 19:06:26;;;;;;;19.33;10.02;;;1.80;99.80;;;;;;6249603;23;19899;-81
2021/01/01 19:08:52;;;;;;;17.98;10.73;;;1.80;99.70;;;;;;6250526;23;20005;-80
2021/01/01 19:11:19;;;;;;;21.45;11.00;;;1.80;99.50;;;;;;6221723;23;20031;-80
2021/01/01 19:13:49;;;;;;;20.45;10.60;;;1.90;99.50;;;;;;6248758;23;20000;-79
2021/01/01 19:16:19;;;;;;;21.55;11.95;;;1.90;99.50;;;;;;6222216;23;20147;-80
2021/01/01 19:19:12;;;;;;;15.90;9.32;;;1.90;99.50;;;;;;6246288;23;20079;-79
2021/01/01 19:21:44;;;;;;;17.20;10.73;;;1.90;99.60;;;;;;6248126;22;20004;-79
2021/01/01 19:24:23;;;;;;;19.42;11.00;;;1.90;99.60;;;;;;6220476;23;20004;-79
2021/01/01 19:26:57;;;;;;;19.85;10.68;;;1.90;99.60;;;;;;6220338;23;20087;-79
2021/01/01 19:29:29;;;;;;;22.85;11.05;;;1.90;99.70;;;;;;6247716;23;20004;-79
2021/01/01 19:32:02;;;;;;;17.60;10.35;;;1.90;99.60;;;;;;6248727;23;20011;-79
2021/01/01 19:35:05;;;;;;;19.17;11.07;;;1.90;99.60;;;;;;6249087;23;19996;-79
2021/01/01 19:37:49;;;;;;;18.95;11.65;;;1.90;99.60;;;;;;6250586;23;20020;-79
2021/01/01 19:40:43;;;;;;;22.73;13.00;;;1.90;99.50;;;;;;6246371;22;20012;-80
2021/01/01 19:43:25;;;;;;;23.90;12.73;;;1.90;99.50;;;;;;6246347;23;20004;-79
2021/01/01 19:46:09;;;;;;;28.02;14.80;;;1.90;99.60;;;;;;6219129;23;20340;-80
2021/01/01 19:49:00;;;;;;;24.73;14.93;;;1.80;99.60;;;;;;6221335;23;20075;-78
2021/01/01 19:51:31;;;;;;;26.65;14.40;;;1.80;99.70;;;;;;6223560;23;19996;-79
2021/01/01 19:54:06;;;;;;;26.13;13.48;;;1.80;99.70;;;;;;6223883;23;20426;-79
2021/01/01 19:56:42;;;;;;;27.58;13.50;;;1.70;99.90;;;;;;6248748;23;20000;-78
2021/01/01 19:59:28;;;;;;;25.98;14.02;;;1.80;99.90;;;;;;6249205;23;20084;-79
2021/01/01 20:01:55;;;;;;;22.48;12.65;;;1.70;99.90;;;;;;6249738;23;20000;-79
2021/01/01 20:04:33;;;;;;;21.80;12.45;;;1.70;99.90;;;;;;6222824;23;20367;-80
2021/01/01 20:07:19;;;;;;;23.40;13.10;;;1.70;99.90;;;;;;6222441;23;20099;-81
2021/01/01 20:09:52;;;;;;;21.75;12.73;;;1.70;99.90;;;;;;6250147;22;20004;-79
2021/01/01 20:12:26;;;;;;;20.65;12.63;;;1.70;99.90;;;;;;6250179;23;20010;-80
2021/01/01 20:15:01;;;;;;;19.35;11.82;;;1.70;99.90;;;;;;6224595;23;20012;-79
2021/01/01 20:17:27;;;;;;;21.15;12.05;;;1.70;99.90;;;;;;6248690;23;20000;-78
2021/01/01 20:19:54;;;;;;;21.48;11.43;;;1.70;99.90;;;;;;6222475;23;20008;-80
2021/01/01 20:22:21;;;;;;;18.92;11.25;;;1.70;99.90;;;;;;6223473;23;20081;-80
2021/01/01 20:24:49;;;;;;;18.63;11.52;;;1.70;99.90;;;;;;6256830;23;19996;-81
2021/01/01 20:27:26;;;;;;;23.50;13.25;;;1.70;99.90;;;;;;6227917;23;20027;-80
2021/01/01 20:30:07;;;;;;;20.42;12.68;;;1.70;99.90;;;;;;6251245;22;20000;-80
2021/01/01 20:32:37;;;;;;;28.30;14.05;;;1.70;99.90;;;;;;6216286;23;20012;-78
2021/01/01 20:35:06;;;;;;;29.65;14.80;;;1.70;99.90;;;;;;6224762;23;20016;-81
2021/01/01 20:37:33;;;;;;;22.92;12.85;;;1.70;99.90;;;;;;6223701;23;20008;-80
2021/01/01 20:40:15;;;;;;;23.88;13.95;;;1.70;99.90;;;;;;6249444;22;20008;-78
2021/01/01 20:43:28;;;;;;;26.85;14.40;;;1.70;99.90;;;;;;6249998;23;20000;-80
2021/01/01 20:57:39;;;;;;;23.17;13.07;;;1.70;99.90;;;;;;6254528;23;20404;-79
2021/01/01 21:00:13;;;;;;;25.48;14.07;;;1.70;99.90;;;;;;6225836;23;20000;-82
2021/01/01 21:02:45;;;;;;;24.80;13.55;;;1.70;99.90;;;;;;6224663;23;20031;-80
2021/01/01 21:05:14;;;;;;;26.42;14.23;;;1.60;99.90;;;;;;6252509;23;20064;-83
2021/01/01 21:08:04;;;;;;;26.17;14.77;;;1.70;99.90;;;;;;6260201;23;20132;-81
2021/01/01 21:11:11;;;;;;;24.75;13.80;;;1.60;99.90;;;;;;6254764;22;20032;-84
2021/01/01 21:13:48;;;;;;;23.42;13.43;;;1.60;99.90;;;;;;6120758;23;19998;-81
2021/01/01 21:16:23;;;;;;;19.88;12.68;;;1.60;99.90;;;;;;6219516;23;20108;-82
2021/01/01 21:19:06;;;;;;;28.45;15.80;;;1.60;99.90;;;;;;6257884;23;20008;-85
2021/01/01 21:21:50;;;;;;;27.27;14.57;;;1.60;99.90;;;;;;6256020;22;20078;-84
2021/01/01 21:24:38;;;;;;;23.83;12.75;;;1.60;99.90;;;;;;6249468;23;20046;-83
2021/01/01 21:27:25;;;;;;;20.55;12.65;;;1.60;99.90;;;;;;6249830;23;20048;-82
2021/01/01 21:30:18;;;;;;;24.45;13.68;;;1.60;99.90;;;;;;6258515;22;20498;-83
2021/01/01 21:32:43;;;;;;;21.60;12.52;;;1.70;99.90;;;;;;6227612;23;20030;-83
2021/01/01 21:35:21;;;;;;;28.52;15.23;;;1.70;99.90;;;;;;6231617;23;20004;-83
2021/01/01 21:38:18;;;;;;;24.00;13.85;;;1.70;99.90;;;;;;6249801;23;20001;-81
2021/01/01 21:41:07;;;;;;;25.95;14.93;;;1.70;99.90;;;;;;6251051;22;20062;-81
2021/01/01 21:44:01;;;;;;;26.60;14.02;;;1.70;99.90;;;;;;6251467;23;20072;-85
2021/01/01 21:46:44;;;;;;;26.55;13.38;;;1.70;99.90;;;;;;6250943;23;19996;-80
2021/01/01 21:49:23;;;;;;;27.30;14.77;;;1.70;99.90;;;;;;6254666;23;20005;-82
2021/01/01 21:51:57;;;;;;;25.73;14.60;;;1.70;99.90;;;;;;6261149;22;20000;-80
2021/01/01 21:54:23;;;;;;;24.77;14.80;;;1.70;99.90;;;;;;6256897;23;20034;-81
2021/01/01 21:56:49;;;;;;;22.38;13.20;;;1.70;99.90;;;;;;6222910;23;20596;-81
2021/01/01 21:59:14;;;;;;;28.20;14.98;;;1.70;99.90;;;;;;6250823;23;20000;-83
2021/01/01 22:01:41;;;;;;;27.50;15.55;;;1.70;99.90;;;;;;6228979;23;20004;-83
2021/01/01 22:04:09;;;;;;;29.85;15.55;;;1.70;99.90;;;;;;6252120;23;20003;-82
2021/01/01 22:06:34;;;;;;;28.88;15.57;;;1.70;99.90;;;;;;6254217;23;19992;-82
2021/01/01 22:09:00;;;;;;;25.35;15.85;;;1.60;99.90;;;;;;6250449;23;20031;-83
2021/01/01 22:11:26;;;;;;;31.98;16.45;;;1.60;99.90;;;;;;6249188;22;20000;-84
2021/01/01 22:13:51;;;;;;;27.55;14.35;;;1.60;99.90;;;;;;6227211;23;20008;-81
2021/01/01 22:16:17;;;;;;;28.23;16.08;;;1.60;99.90;;;;;;6248323;23;20000;-80
2021/01/01 22:18:43;;;;;;;24.27;13.70;;;1.60;99.90;;;;;;6253674;23;20395;-83
2021/01/01 22:21:09;;;;;;;31.23;17.88;;;1.60;99.90;;;;;;6252486;22;19993;-82
2021/01/01 22:23:35;;;;;;;29.65;16.02;;;1.60;99.90;;;;;;6249119;23;19997;-83
2021/01/01 22:26:00;;;;;;;28.02;16.45;;;1.60;99.90;;;;;;6249309;23;20000;-82
2021/01/01 22:28:26;;;;;;;25.15;14.55;;;1.60;99.90;;;;;;6254607;23;20011;-84
2021/01/01 22:30:51;;;;;;;23.75;13.15;;;1.50;99.90;;;;;;6250954;22;20008;-82
2021/01/01 22:33:20;;;;;;;25.27;14.95;;;1.60;99.90;;;;;;6249226;23;20293;-81
2021/01/01 22:35:52;;;;;;;25.88;14.65;;;1.60;99.90;;;;;;6255953;23;20007;-83
2021/01/01 22:38:23;;;;;;;22.02;13.65;;;1.60;99.90;;;;;;6227407;23;20274;-82
2021/01/01 22:40:52;;;;;;;28.90;15.15;;;1.60;99.90;;;;;;6250437;22;20023;-80
2021/01/01 22:43:27;;;;;;;28.85;15.02;;;1.60;99.90;;;;;;6254159;23;20016;-84
2021/01/01 22:46:05;;;;;;;28.58;16.25;;;1.50;99.90;;;;;;6258689;23;20000;-83
2021/01/01 22:48:34;;;;;;;21.48;12.73;;;1.60;99.90;;;;;;6257779;23;20004;-85
2021/01/01 22:51:01;;;;;;;39.55;21.35;;;1.60;99.90;;;;;;6231050;23;20047;-83
2021/01/01 22:53:27;;;;;;;29.90;16.75;;;1.60;99.90;;;;;;6248780;23;20405;-83
2021/01/01 22:55:52;;;;;;;22.88;14.23;;;1.60;99.90;;;;;;6259216;23;20000;-82
2021/01/01 22:58:22;;;;;;;24.83;13.85;;;1.60;99.90;;;;;;6250632;23;19996;-80
2021/01/01 23:00:52;;;;;;;27.70;14.65;;;1.60;99.90;;;;;;6251464;22;20000;-82
2021/01/01 23:03:21;;;;;;;25.98;14.90;;;1.60;99.90;;;;;;6250541;23;20000;-82
2021/01/01 23:05:52;;;;;;;31.40;15.80;;;1.60;99.90;;;;;;6254771;23;20464;-83
2021/01/01 23:08:19;;;;;;;21.75;12.57;;;1.60;99.90;;;;;;6224373;23;20012;-81
2021/01/01 23:10:45;;;;;;;22.00;12.20;;;1.60;99.90;;;;;;6248164;22;20568;-83
2021/01/01 23:13:11;;;;;;;20.10;11.48;;;1.60;99.90;;;;;;6228309;23;20004;-81
2021/01/01 23:15:38;;;;;;;26.35;13.38;;;1.70;99.90;;;;;;6254384;23;20004;-84
2021/01/01 23:18:06;;;;;;;25.00;14.02;;;1.70;99.90;;;;;;6253960;23;20060;-82
2021/01/01 23:20:33;;;;;;;26.15;15.05;;;1.70;99.90;;;;;;6225365;23;20016;-81
2021/01/01 23:23:01;;;;;;;26.88;15.82;;;1.70;99.70;;;;;;6250292;23;20003;-81
2021/01/01 23:25:29;;;;;;;20.98;13.45;;;1.70;99.70;;;;;;6250059;23;20000;-80
2021/01/01 23:28:33;;;;;;;29.42;16.10;;;1.70;99.80;;;;;;6250115;23;20031;-81
2021/01/01 23:31:15;;;;;;;25.90;13.63;;;1.70;99.60;;;;;;6220692;23;20498;-82
2021/01/01 23:34:18;;;;;;;23.08;14.05;;;1.70;99.60;;;;;;6224043;23;20055;-83
2021/01/01 23:36:45;;;;;;;25.63;15.82;;;1.70;99.70;;;;;;6251749;23;20035;-83
2021/01/01 23:39:19;;;;;;;25.38;13.13;;;1.80;99.50;;;;;;6223997;23;20444;-82
2021/01/01 23:41:50;;;;;;;22.75;12.50;;;1.80;99.50;;;;;;6226065;23;20079;-81
2021/01/01 23:44:22;;;;;;;25.27;13.27;;;1.80;99.40;;;;;;6223336;23;20020;-82
2021/01/01 23:46:56;;;;;;;30.10;16.38;;;1.80;99.40;;;;;;6232636;23;20007;-85
2021/01/01 23:49:25;;;;;;;28.25;15.65;;;1.80;99.00;;;;;;6255533;23;20000;-83
2021/01/01 23:51:54;;;;;;;26.75;15.23;;;1.80;99.10;;;;;;6227163;23;20015;-83
2021/01/01 23:54:26;;;;;;;28.20;17.10;;;1.70;99.10;;;;;;6250286;23;20000;-83
2021/01/01 23:56:53;;;;;;;25.92;15.43;;;1.70;99.30;;;;;;6232023;23;20004;-83
2021/01/01 23:59:19;;;;;;;23.27;14.10;;;1.60;99.50;;;;;;6232479;23;20015;-84
